Time;durP1;ratioP1;P1;durP2;ratioP2;P2;SDS_P1;SDS_P2;PMS_P1;PMS_P2;Temp;Humidity;BMP_temperature;BMP_pressure;BME280_temperature;BME280_humidity;BME280_pressure;Samples;Min_cycle;Max_cycle;Signal;HPM_P1;HPM_P2
2023/07/10 00:00:58;;;;;;;6.45;2.63;;;18.90;99.90;;;;;;5044477;28;20020;-58
2023/07/10 00:03:24;;;;;;;2.90;1.80;;;18.90;99.90;;;;;;5069563;28;20428;-57
2023/07/10 00:05:50;;;;;;;4.95;1.65;;;18.80;99.90;;;;;;5072842;28;20263;-57
2023/07/10 00:08:15;;;;;;;7.45;1.38;;;18.90;99.90;;;;;;5068592;28;20393;-61
2023/07/10 00:10:41;;;;;;;2.75;1.40;;;18.90;99.90;;;;;;5052967;28;20033;-57
2023/07/10 00:13:12;;;;;;;1.73;1.52;;;19.00;99.90;;;;;;5072047;28;20526;-58
2023/07/10 00:15:38;;;;;;;3.35;1.40;;;19.00;99.90;;;;;;5062494;28;20025;-58
2023/07/10 00:18:14;;;;;;;2.28;1.30;;;19.00;99.90;;;;;;5046854;28;20059;-57
2023/07/10 00:20:39;;;;;;;3.05;1.50;;;19.00;99.90;;;;;;5048972;28;20386;-57
2023/07/10 00:23:05;;;;;;;6.60;1.60;;;19.00;99.90;;;;;;5057995;28;20029;-57
2023/07/10 00:25:31;;;;;;;3.45;1.58;;;19.10;99.90;;;;;;5050924;28;20025;-58
2023/07/10 00:27:56;;;;;;;1.58;1.42;;;19.10;99.90;;;;;;5047413;28;20029;-56
2023/07/10 00:30:23;;;;;;;1.55;1.27;;;19.10;99.90;;;;;;5048636;28;20104;-58
2023/07/10 00:32:54;;;;;;;2.35;1.15;;;19.10;99.90;;;;;;5048327;28;20025;-58
2023/07/10 00:35:25;;;;;;;2.13;1.48;;;19.10;99.90;;;;;;5049333;28;20082;-56
2023/07/10 00:38:02;;;;;;;2.97;1.35;;;19.10;99.90;;;;;;5062556;28;20032;-58
2023/07/10 00:40:31;;;;;;;1.98;1.35;;;19.20;99.90;;;;;;5048049;28;20108;-58
2023/07/10 00:43:34;;;;;;;2.83;1.55;;;19.20;99.90;;;;;;5050413;28;20037;-58
2023/07/10 00:46:23;;;;;;;1.85;1.30;;;19.20;99.90;;;;;;5050858;28;20110;-58
2023/07/10 00:49:06;;;;;;;1.17;1.08;;;19.10;99.90;;;;;;5048668;28;20026;-57
2023/07/10 00:52:07;;;;;;;1.65;1.25;;;19.10;99.90;;;;;;5047716;28;20460;-57
2023/07/10 00:54:35;;;;;;;4.95;1.42;;;19.10;99.90;;;;;;5037244;28;20041;-57
2023/07/10 00:57:10;;;;;;;3.28;1.77;;;19.10;99.90;;;;;;5049407;28;20025;-58
2023/07/10 00:59:39;;;;;;;5.68;1.50;;;19.10;99.90;;;;;;5050997;28;20466;-58
2023/07/10 01:02:07;;;;;;;2.35;1.55;;;19.10;99.90;;;;;;5051371;28;20104;-58
2023/07/10 01:04:34;;;;;;;2.53;1.05;;;19.10;99.90;;;;;;5055375;28;20500;-57
2023/07/10 01:07:00;;;;;;;1.40;0.80;;;19.20;99.90;;;;;;5050925;28;20083;-58
2023/07/10 01:09:27;;;;;;;13.48;2.15;;;19.10;99.90;;;;;;5054720;28;20283;-57
2023/07/10 01:11:53;;;;;;;2.33;1.37;;;19.10;99.90;;;;;;5055102;28;20187;-57
2023/07/10 01:14:22;;;;;;;1.90;1.23;;;19.10;99.90;;;;;;5053886;28;20040;-58
2023/07/10 01:16:48;;;;;;;6.57;1.40;;;19.10;99.90;;;;;;5052849;28;20035;-58
2023/07/10 01:19:21;;;;;;;2.75;1.27;;;19.10;99.90;;;;;;5056039;28;20029;-58
2023/07/10 01:21:47;;;;;;;1.25;1.05;;;19.00;99.90;;;;;;5058039;28;20024;-58
2023/07/10 01:24:13;;;;;;;3.40;1.08;;;19.00;99.90;;;;;;5045132;28;20131;-57
2023/07/10 01:26:40;;;;;;;1.42;1.10;;;19.10;99.90;;;;;;5066871;28;20439;-58
2023/07/10 01:29:21;;;;;;;1.65;1.02;;;19.00;99.90;;;;;;5067341;28;20025;-58
2023/07/10 01:31:50;;;;;;;5.75;1.35;;;19.00;99.90;;;;;;5058401;28;20021;-58
2023/07/10 01:34:18;;;;;;;8.15;1.10;;;18.90;99.90;;;;;;5055541;28;20485;-58
2023/07/10 01:36:45;;;;;;;2.95;0.95;;;19.00;99.90;;;;;;5066416;28;20021;-57
2023/07/10 01:39:10;;;;;;;3.85;1.52;;;18.90;99.90;;;;;;5075607;28;20086;-57
2023/07/10 01:41:39;;;;;;;2.42;1.10;;;19.00;99.90;;;;;;5061282;28;20021;-57
2023/07/10 01:44:28;;;;;;;7.30;1.17;;;19.00;99.90;;;;;;5055549;28;20151;-58
2023/07/10 01:46:55;;;;;;;1.52;1.17;;;19.00;99.90;;;;;;5056179;28;20094;-58
2023/07/10 01:49:26;;;;;;;2.70;1.17;;;18.90;99.90;;;;;;5053987;28;20036;-58
2023/07/10 01:51:54;;;;;;;2.45;1.33;;;18.90;99.90;;;;;;5051463;28;20017;-55
2023/07/10 01:54:19;;;;;;;;;;;18.90;99.90;;;;;;5067309;28;20031;-65
2023/07/10 01:56:46;;;;;;;2.63;1.05;;;18.90;99.90;;;;;;5075342;28;20352;-57
2023/07/10 01:59:12;;;;;;;2.33;1.33;;;18.90;99.90;;;;;;5075289;28;20095;-56
2023/07/10 02:01:38;;;;;;;3.65;1.48;;;18.90;99.90;;;;;;5064529;28;20022;-60
2023/07/10 02:04:04;;;;;;;4.07;1.20;;;18.90;99.90;;;;;;5055172;28;20528;-57
2023/07/10 02:06:31;;;;;;;6.32;1.30;;;18.80;99.90;;;;;;5055060;28;20543;-57
2023/07/10 02:08:57;;;;;;;2.05;0.95;;;18.70;99.90;;;;;;5051412;28;20024;-58
2023/07/10 02:11:23;;;;;;;3.45;1.30;;;18.70;99.90;;;;;;5054729;28;20409;-58
2023/07/10 02:13:48;;;;;;;1.73;1.58;;;18.70;99.90;;;;;;5052786;28;20031;-57
2023/07/10 02:16:15;;;;;;;2.03;1.48;;;18.70;99.90;;;;;;5056184;28;20025;-58
2023/07/10 02:18:41;;;;;;;3.20;1.42;;;18.70;99.90;;;;;;5053889;28;20025;-58
2023/07/10 02:21:08;;;;;;;4.72;1.67;;;18.60;99.90;;;;;;5054864;28;20029;-57
2023/07/10 02:23:36;;;;;;;3.80;1.43;;;18.60;99.90;;;;;;5052146;28;20032;-56
2023/07/10 02:26:03;;;;;;;3.75;1.70;;;18.60;99.90;;;;;;5052932;28;20025;-55
2023/07/10 02:28:28;;;;;;;4.22;1.40;;;18.60;99.90;;;;;;5051874;28;20035;-58
2023/07/10 02:30:54;;;;;;;3.15;1.73;;;18.60;99.90;;;;;;5042708;28;20432;-57
2023/07/10 02:33:20;;;;;;;4.13;2.05;;;18.60;99.90;;;;;;5052109;28;20078;-58
2023/07/10 02:35:46;;;;;;;4.63;2.35;;;18.60;99.90;;;;;;5062315;28;20033;-58
2023/07/10 02:38:12;;;;;;;3.60;1.50;;;18.50;99.90;;;;;;5054063;28;20020;-64
2023/07/10 02:40:38;;;;;;;2.80;2.05;;;18.50;99.90;;;;;;5052678;28;20025;-58
2023/07/10 02:43:04;;;;;;;4.40;1.90;;;18.50;99.90;;;;;;5051768;28;20486;-56
2023/07/10 02:45:29;;;;;;;6.30;1.77;;;18.40;99.90;;;;;;5056753;28;20039;-58
2023/07/10 02:47:55;;;;;;;5.50;1.95;;;18.40;99.90;;;;;;5051830;28;20029;-57
2023/07/10 02:50:21;;;;;;;5.50;1.92;;;18.40;99.90;;;;;;5054276;28;20107;-56
2023/07/10 02:52:46;;;;;;;6.65;2.75;;;18.40;99.90;;;;;;5058600;28;20063;-53
2023/07/10 02:55:12;;;;;;;5.57;2.30;;;18.30;99.90;;;;;;5054180;28;20586;-57
2023/07/10 02:57:38;;;;;;;4.15;2.28;;;18.30;99.90;;;;;;5053076;28;20130;-57
2023/07/10 03:00:04;;;;;;;5.72;2.08;;;18.30;99.90;;;;;;5054184;28;20033;-57
2023/07/10 03:02:30;;;;;;;3.03;2.60;;;18.30;99.90;;;;;;5056473;28;20163;-57
2023/07/10 03:04:56;;;;;;;4.72;2.10;;;18.30;99.90;;;;;;5054137;28;20470;-57
2023/07/10 03:07:22;;;;;;;5.85;2.72;;;18.30;99.90;;;;;;5070479;28;20036;-57
2023/07/10 03:09:49;;;;;;;5.13;3.22;;;18.30;99.90;;;;;;5053943;28;20033;-57
2023/07/10 03:12:14;;;;;;;9.50;2.30;;;18.30;99.90;;;;;;5070264;28;20052;-57
2023/07/10 03:14:40;;;;;;;4.10;2.20;;;18.20;99.90;;;;;;5063979;28;20016;-56
2023/07/10 03:17:06;;;;;;;4.30;2.10;;;18.20;99.90;;;;;;5049100;28;20027;-59
2023/07/10 03:19:32;;;;;;;3.38;1.65;;;18.30;99.90;;;;;;5046459;28;20021;-58
2023/07/10 03:21:57;;;;;;;3.75;2.17;;;18.30;99.90;;;;;;5047532;28;20040;-56
2023/07/10 03:24:23;;;;;;;8.75;2.38;;;18.20;99.90;;;;;;5052709;28;20029;-57
2023/07/10 03:26:49;;;;;;;3.33;2.50;;;18.20;99.90;;;;;;5050528;28;20485;-57
2023/07/10 03:29:15;;;;;;;5.40;2.83;;;18.20;99.90;;;;;;5049060;28;20041;-57
2023/07/10 03:31:42;;;;;;;4.60;3.20;;;18.20;99.90;;;;;;5049988;28;20508;-57
2023/07/10 03:34:11;;;;;;;4.63;2.63;;;18.30;99.90;;;;;;5048568;28;20021;-55
2023/07/10 03:36:37;;;;;;;5.10;2.65;;;18.30;99.90;;;;;;5051133;28;20074;-56
2023/07/10 03:39:03;;;;;;;5.10;2.67;;;18.30;99.90;;;;;;5051205;28;20021;-55
2023/07/10 03:41:28;;;;;;;5.55;2.75;;;18.30;99.90;;;;;;5051900;28;20473;-55
2023/07/10 03:43:55;;;;;;;9.63;3.30;;;18.30;99.90;;;;;;5046557;28;20033;-59
2023/07/10 03:46:20;;;;;;;7.75;3.17;;;18.30;99.90;;;;;;5043019;28;20032;-70
2023/07/10 03:48:47;;;;;;;5.93;3.22;;;18.30;99.90;;;;;;5047596;28;20481;-55
2023/07/10 03:51:14;;;;;;;4.93;2.67;;;18.30;99.90;;;;;;5032726;28;20021;-57
2023/07/10 03:53:40;;;;;;;4.87;3.00;;;18.30;99.90;;;;;;5049698;28;20034;-57
2023/07/10 03:56:06;;;;;;;4.03;2.78;;;18.30;99.90;;;;;;5048321;28;20029;-57
2023/07/10 03:58:34;;;;;;;4.93;2.90;;;18.30;99.90;;;;;;5049493;28;20031;-57
2023/07/10 04:01:00;;;;;;;;;;;18.30;99.90;;;;;;5049498;28;20072;-64
2023/07/10 04:03:28;;;;;;;8.48;2.38;;;18.20;99.90;;;;;;5042463;28;19990;-57
2023/07/10 04:05:57;;;;;;;7.90;3.08;;;18.20;99.90;;;;;;5050699;28;20033;-56
2023/07/10 04:08:34;;;;;;;5.20;2.88;;;18.10;99.90;;;;;;5045767;28;20107;-54
2023/07/10 04:11:03;;;;;;;3.78;2.50;;;18.20;99.90;;;;;;5044045;28;20041;-56
2023/07/10 04:13:28;;;;;;;3.40;2.65;;;18.10;99.90;;;;;;5049115;28;20386;-53
2023/07/10 04:16:14;;;;;;;7.95;2.42;;;18.10;99.90;;;;;;5048513;28;20025;-54
2023/07/10 04:18:42;;;;;;;8.07;2.92;;;18.10;99.90;;;;;;5044654;28;20033;-56
2023/07/10 04:21:19;;;;;;;9.48;3.33;;;18.20;99.90;;;;;;5051968;28;20055;-52
2023/07/10 04:23:45;;;;;;;;;;;18.20;99.90;;;;;;5053089;28;20025;-55
2023/07/10 04:26:19;;;;;;;2.83;2.08;;;18.20;99.90;;;;;;5052289;28;19908;-57
2023/07/10 04:28:47;;;;;;;5.85;2.63;;;18.20;99.90;;;;;;5050731;28;20040;-57
2023/07/10 04:31:13;;;;;;;5.47;2.17;;;18.10;99.90;;;;;;5051359;28;20473;-57
2023/07/10 04:33:39;;;;;;;8.15;2.65;;;18.10;99.90;;;;;;5051972;28;20025;-56
2023/07/10 04:36:05;;;;;;;5.50;2.63;;;18.10;99.90;;;;;;5051510;28;20363;-53
2023/07/10 04:38:30;;;;;;;5.60;2.17;;;18.10;99.90;;;;;;5052714;28;20036;-57
2023/07/10 04:40:59;;;;;;;4.20;1.98;;;18.10;99.90;;;;;;5056730;28;20528;-58
2023/07/10 04:43:27;;;;;;;4.63;2.85;;;18.10;99.90;;;;;;5055726;28;20109;-57
2023/07/10 04:45:55;;;;;;;5.28;2.47;;;18.10;99.90;;;;;;5055194;28;20025;-55
2023/07/10 04:48:22;;;;;;;6.50;2.20;;;18.10;99.90;;;;;;5055168;28;20025;-55
2023/07/10 04:50:48;;;;;;;7.50;2.90;;;18.10;99.90;;;;;;5053937;28;20032;-57
2023/07/10 04:53:15;;;;;;;8.83;2.60;;;18.00;99.90;;;;;;5048533;28;20108;-57
2023/07/10 04:55:42;;;;;;;2.78;2.28;;;18.00;99.90;;;;;;5034822;28;20044;-56
2023/07/10 04:58:08;;;;;;;7.32;3.15;;;18.00;99.90;;;;;;5038139;28;20093;-56
2023/07/10 05:00:33;;;;;;;8.30;2.83;;;18.00;99.90;;;;;;5054082;28;20584;-57
2023/07/10 05:03:00;;;;;;;6.93;2.42;;;18.10;99.90;;;;;;5049476;28;20499;-59
2023/07/10 05:05:25;;;;;;;2.38;1.70;;;18.10;99.90;;;;;;5036030;28;20100;-61
2023/07/10 05:07:51;;;;;;;3.85;2.30;;;18.10;99.90;;;;;;5036223;28;20551;-49
2023/07/10 05:10:16;;;;;;;5.65;2.78;;;18.10;99.90;;;;;;5047268;28;20163;-57
2023/07/10 05:12:42;;;;;;;9.85;2.45;;;18.20;99.90;;;;;;5052777;28;20045;-55
2023/07/10 05:15:08;;;;;;;3.63;2.30;;;18.20;99.90;;;;;;5055899;28;20027;-53
2023/07/10 05:17:34;;;;;;;4.78;1.83;;;18.30;99.90;;;;;;5052560;28;20064;-54
2023/07/10 05:20:00;;;;;;;2.88;1.88;;;18.30;99.90;;;;;;5042396;28;20111;-57
2023/07/10 05:22:26;;;;;;;3.35;1.58;;;18.40;99.90;;;;;;5053220;28;20024;-56
2023/07/10 05:24:51;;;;;;;3.25;1.63;;;18.40;99.90;;;;;;5053737;28;20039;-57
2023/07/10 05:27:17;;;;;;;4.95;2.20;;;18.50;99.90;;;;;;5054076;28;20390;-57
2023/07/10 05:29:42;;;;;;;3.70;1.77;;;18.50;99.90;;;;;;5053265;28;20032;-57
2023/07/10 05:32:08;;;;;;;4.07;2.00;;;18.60;99.90;;;;;;5050211;28;20026;-56
2023/07/10 05:34:34;;;;;;;2.75;2.55;;;18.60;99.90;;;;;;5064248;28;20079;-56
2023/07/10 05:37:00;;;;;;;4.28;2.00;;;18.60;99.90;;;;;;5060088;28;20026;-58
2023/07/10 05:39:27;;;;;;;4.78;2.20;;;18.70;99.90;;;;;;5053587;28;20549;-59
2023/07/10 05:41:53;;;;;;;;;;;18.80;99.90;;;;;;5049655;28;20055;-60
2023/07/10 05:44:18;;;;;;;7.03;1.90;;;18.80;99.90;;;;;;5052694;28;19908;-59
2023/07/10 05:46:44;;;;;;;3.05;1.92;;;18.90;99.90;;;;;;5055477;28;20550;-59
2023/07/10 05:49:10;;;;;;;6.70;1.92;;;18.90;99.90;;;;;;5051544;28;20040;-58
2023/07/10 05:51:35;;;;;;;2.17;1.77;;;19.00;99.90;;;;;;5054267;28;20139;-58
2023/07/10 05:54:02;;;;;;;3.60;1.80;;;19.10;99.90;;;;;;5055099;28;20017;-60
2023/07/10 05:56:28;;;;;;;7.90;2.10;;;19.10;99.90;;;;;;5051570;28;20064;-60
2023/07/10 05:58:53;;;;;;;15.52;2.55;;;19.10;99.90;;;;;;5068318;28;20034;-66
2023/07/10 06:01:19;;;;;;;4.35;1.63;;;19.20;99.90;;;;;;5059687;28;20116;-64
2023/07/10 06:03:45;;;;;;;10.02;2.30;;;19.20;99.90;;;;;;5067336;28;20119;-56
2023/07/10 06:06:10;;;;;;;3.42;2.50;;;19.30;99.90;;;;;;5072828;28;20023;-57
2023/07/10 06:08:37;;;;;;;7.40;2.17;;;19.40;99.90;;;;;;5054901;28;20108;-61
2023/07/10 06:11:04;;;;;;;4.22;1.98;;;19.50;99.90;;;;;;5060938;28;20474;-60
2023/07/10 06:13:30;;;;;;;3.40;2.75;;;19.50;99.90;;;;;;5058423;28;20040;-59
2023/07/10 06:15:57;;;;;;;7.57;2.72;;;19.50;99.90;;;;;;5054179;28;20112;-59
2023/07/10 06:18:24;;;;;;;6.05;2.20;;;19.60;99.90;;;;;;5064315;28;20024;-65
2023/07/10 06:20:55;;;;;;;4.60;1.98;;;19.70;99.90;;;;;;5074990;28;20082;-59
2023/07/10 06:23:22;;;;;;;3.58;1.50;;;19.90;99.90;;;;;;5068046;28;20098;-59
2023/07/10 06:25:50;;;;;;;7.28;1.85;;;20.00;99.90;;;;;;5061765;28;20024;-60
2023/07/10 06:28:16;;;;;;;;;;;20.20;99.90;;;;;;5075093;28;20028;-60
2023/07/10 06:30:43;;;;;;;2.75;1.67;;;20.40;99.90;;;;;;5074563;28;19905;-59
2023/07/10 06:33:09;;;;;;;6.32;2.53;;;20.50;99.90;;;;;;5069790;28;20497;-58
2023/07/10 06:35:35;;;;;;;7.45;2.05;;;20.80;99.90;;;;;;5074463;28;20055;-60
2023/07/10 06:38:01;;;;;;;8.43;1.98;;;21.10;99.90;;;;;;5059732;28;20040;-62
2023/07/10 06:40:26;;;;;;;4.68;1.55;;;21.40;99.90;;;;;;5052893;28;20028;-57
2023/07/10 06:42:52;;;;;;;4.55;1.80;;;21.70;99.90;;;;;;5053030;28;20032;-60
2023/07/10 06:45:18;;;;;;;6.28;1.80;;;21.90;99.90;;;;;;5053349;28;20052;-58
2023/07/10 06:47:45;;;;;;;3.53;1.45;;;22.00;99.90;;;;;;5049376;28;20056;-60
2023/07/10 06:50:13;;;;;;;3.78;1.50;;;21.80;99.90;;;;;;5048279;28;20028;-60
2023/07/10 06:52:41;;;;;;;3.60;1.75;;;22.10;99.90;;;;;;5049496;28;20074;-60
2023/07/10 06:55:10;;;;;;;4.93;1.60;;;22.50;99.90;;;;;;5054289;28;20071;-61
2023/07/10 06:57:36;;;;;;;8.00;1.75;;;23.50;99.90;;;;;;5055106;28;20462;-59
2023/07/10 07:00:04;;;;;;;4.15;1.73;;;24.40;99.90;;;;;;5046402;28;20082;-62
2023/07/10 07:02:30;;;;;;;9.82;1.90;;;25.40;99.90;;;;;;5042260;28;20536;-60
2023/07/10 07:04:55;;;;;;;2.65;1.73;;;26.10;99.90;;;;;;5034591;28;20104;-60
2023/07/10 07:07:21;;;;;;;6.50;1.85;;;26.20;99.90;;;;;;5037958;28;20474;-57
2023/07/10 07:09:47;;;;;;;2.25;1.17;;;26.20;99.90;;;;;;5047005;28;20557;-61
2023/07/10 07:12:12;;;;;;;5.32;1.23;;;26.10;99.90;;;;;;5053617;28;20513;-61
2023/07/10 07:14:38;;;;;;;8.27;1.77;;;26.70;99.90;;;;;;5054014;28;20465;-58
2023/07/10 07:17:04;;;;;;;3.22;1.20;;;26.70;99.90;;;;;;5053656;28;20465;-60
2023/07/10 07:19:30;;;;;;;5.83;1.60;;;26.50;99.90;;;;;;5053692;28;20035;-60
2023/07/10 07:21:58;;;;;;;5.60;1.58;;;26.90;99.90;;;;;;5053395;28;20025;-59
2023/07/10 07:24:23;;;;;;;;;;;27.20;99.90;;;;;;5047326;28;20029;-60
2023/07/10 07:26:49;;;;;;;8.32;1.27;;;27.20;99.90;;;;;;5041628;28;20379;-51
2023/07/10 07:29:14;;;;;;;5.90;1.70;;;27.70;99.90;;;;;;5047821;28;20027;-61
2023/07/10 07:31:40;;;;;;;6.18;1.52;;;27.90;99.90;;;;;;5062090;28;20116;-61
2023/07/10 07:34:06;;;;;;;3.83;1.10;;;28.00;99.90;;;;;;5063016;28;20048;-60
2023/07/10 07:36:34;;;;;;;10.10;1.55;;;27.70;99.90;;;;;;5071007;28;20028;-61
2023/07/10 07:39:01;;;;;;;5.60;1.42;;;27.50;99.90;;;;;;5053289;28;20495;-58
2023/07/10 07:41:27;;;;;;;;;;;27.40;99.90;;;;;;5048352;28;20485;-63
2023/07/10 07:43:52;;;;;;;6.15;1.38;;;26.80;99.90;;;;;;5050567;28;19935;-61
2023/07/10 07:46:18;;;;;;;4.72;1.58;;;26.40;99.90;;;;;;5053685;28;20020;-61
2023/07/10 07:48:43;;;;;;;8.77;1.40;;;26.00;99.90;;;;;;5049141;28;20028;-62
2023/07/10 07:51:10;;;;;;;5.63;1.50;;;25.60;99.90;;;;;;5049949;28;20045;-63
2023/07/10 07:53:41;;;;;;;9.57;1.83;;;25.30;99.90;;;;;;5050315;28;20043;-62
2023/07/10 07:56:07;;;;;;;8.02;2.33;;;24.70;99.90;;;;;;5056993;28;20050;-62
2023/07/10 07:58:32;;;;;;;5.25;1.90;;;23.90;99.90;;;;;;5040116;28;20521;-63
2023/07/10 08:00:59;;;;;;;7.20;1.20;;;23.70;99.90;;;;;;5058826;28;20048;-61
2023/07/10 08:03:25;;;;;;;6.60;1.67;;;23.60;99.90;;;;;;5060186;28;20040;-61
2023/07/10 08:05:51;;;;;;;9.23;1.67;;;23.50;99.90;;;;;;5069467;28;20032;-59
2023/07/10 08:08:17;;;;;;;10.65;1.75;;;23.60;99.90;;;;;;5072796;28;20032;-62
2023/07/10 08:10:48;;;;;;;8.32;1.63;;;23.90;99.90;;;;;;5060907;28;20435;-62
2023/07/10 08:13:16;;;;;;;10.27;1.50;;;23.90;99.90;;;;;;5058017;28;20028;-62
2023/07/10 08:15:42;;;;;;;2.25;0.93;;;24.10;99.90;;;;;;5066330;28;20053;-60
2023/07/10 08:18:09;;;;;;;8.33;1.73;;;23.90;99.90;;;;;;5061976;28;20064;-60
2023/07/10 08:20:35;;;;;;;5.78;1.75;;;23.20;99.90;;;;;;5044728;28;20021;-63
2023/07/10 08:23:03;;;;;;;4.35;1.42;;;23.00;99.90;;;;;;5052392;28;20033;-59
2023/07/10 08:25:29;;;;;;;8.18;1.30;;;23.30;99.90;;;;;;5048531;28;20470;-60
2023/07/10 08:27:57;;;;;;;5.13;1.58;;;23.30;99.90;;;;;;5071463;28;20514;-59
2023/07/10 08:30:22;;;;;;;5.95;1.20;;;23.40;99.90;;;;;;5063263;28;20108;-59
2023/07/10 08:32:48;;;;;;;3.63;1.13;;;23.30;99.90;;;;;;5051337;28;20123;-65
2023/07/10 08:35:14;;;;;;;7.93;2.47;;;23.70;99.90;;;;;;5072548;28;20111;-59
2023/07/10 08:37:40;;;;;;;4.55;1.13;;;24.10;99.90;;;;;;5060997;28;20483;-59
2023/07/10 08:40:11;;;;;;;6.57;1.30;;;24.50;99.90;;;;;;5047458;28;20527;-59
2023/07/10 08:42:38;;;;;;;11.70;1.50;;;24.90;99.90;;;;;;5047496;28;20058;-59
2023/07/10 08:45:05;;;;;;;6.10;2.00;;;25.00;99.90;;;;;;5060822;28;20025;-62
2023/07/10 08:47:42;;;;;;;11.05;2.00;;;25.20;99.90;;;;;;5060002;28;20029;-60
2023/07/10 08:50:18;;;;;;;;;;;25.50;99.90;;;;;;5048751;28;20028;-60
2023/07/10 08:53:10;;;;;;;2.07;0.73;;;26.00;99.90;;;;;;5040223;28;19971;-67
2023/07/10 08:55:55;;;;;;;3.30;1.05;;;26.60;99.90;;;;;;5049538;28;20017;-62
2023/07/10 08:58:27;;;;;;;3.95;1.20;;;26.20;99.90;;;;;;5051517;28;20086;-59
2023/07/10 09:01:03;;;;;;;4.20;1.30;;;26.30;99.90;;;;;;5064428;28;20035;-58
2023/07/10 09:03:46;;;;;;;7.10;1.20;;;25.30;99.90;;;;;;5044604;28;20051;-57
2023/07/10 09:06:21;;;;;;;6.68;1.15;;;24.40;99.90;;;;;;5047730;28;20291;-58
2023/07/10 09:08:51;;;;;;;5.60;1.48;;;24.00;99.90;;;;;;5039513;28;20535;-58
2023/07/10 09:11:18;;;;;;;5.93;1.02;;;23.70;99.90;;;;;;5046086;28;20037;-61
2023/07/10 09:13:49;;;;;;;5.60;1.30;;;24.00;99.90;;;;;;5069751;28;20111;-59
2023/07/10 09:16:18;;;;;;;2.50;1.10;;;24.60;99.90;;;;;;5070509;28;20035;-60
2023/07/10 09:18:58;;;;;;;5.47;0.85;;;24.70;99.90;;;;;;5048433;28;20029;-60
2023/07/10 09:21:36;;;;;;;1.67;0.90;;;24.30;99.90;;;;;;5045500;28;20025;-59
2023/07/10 09:24:16;;;;;;;5.85;1.55;;;23.90;99.90;;;;;;5047517;28;20557;-59
2023/07/10 09:26:42;;;;;;;2.10;0.82;;;23.60;99.90;;;;;;5055688;28;20053;-60
2023/07/10 09:29:11;;;;;;;3.58;0.80;;;23.60;99.90;;;;;;5055613;28;20032;-59
2023/07/10 09:31:49;;;;;;;2.72;0.80;;;24.10;99.90;;;;;;5055412;28;20459;-60
2023/07/10 09:34:21;;;;;;;3.65;0.80;;;24.00;99.90;;;;;;5051137;28;20029;-59
2023/07/10 09:36:52;;;;;;;3.30;0.80;;;24.20;99.90;;;;;;5053628;28;20025;-60
2023/07/10 09:39:18;;;;;;;7.93;1.30;;;24.40;99.90;;;;;;5054402;28;20433;-56
2023/07/10 09:41:46;;;;;;;1.88;1.00;;;24.40;99.90;;;;;;5055444;28;20032;-60
2023/07/10 09:44:16;;;;;;;6.07;0.98;;;24.60;99.90;;;;;;5055390;28;20029;-59
2023/07/10 09:46:42;;;;;;;2.80;1.30;;;24.80;99.90;;;;;;5055645;28;20017;-59
2023/07/10 09:49:23;;;;;;;3.92;1.08;;;24.90;99.90;;;;;;5053107;28;20025;-59
2023/07/10 09:52:02;;;;;;;4.80;0.82;;;24.80;99.90;;;;;;5055170;28;20024;-60
2023/07/10 09:54:36;;;;;;;3.78;0.93;;;24.50;99.90;;;;;;5055199;28;20028;-56
2023/07/10 09:57:10;;;;;;;3.03;0.75;;;24.30;99.90;;;;;;5055141;28;20031;-62
2023/07/10 09:59:35;;;;;;;3.08;0.93;;;24.00;99.90;;;;;;5053811;28;20032;-57
2023/07/10 10:02:26;;;;;;;3.50;1.10;;;24.00;99.90;;;;;;5054926;28;20025;-58
2023/07/10 10:05:11;;;;;;;6.10;0.95;;;23.70;99.90;;;;;;5053439;28;20050;-60
2023/07/10 10:07:46;;;;;;;3.25;1.58;;;23.70;99.90;;;;;;5055125;28;20021;-60
2023/07/10 10:10:27;;;;;;;7.60;0.90;;;24.00;99.90;;;;;;5054902;28;20037;-59
2023/07/10 10:13:16;;;;;;;5.78;1.27;;;24.60;99.90;;;;;;5053540;28;20040;-58
2023/07/10 10:15:42;;;;;;;3.75;0.88;;;25.00;99.90;;;;;;5053547;28;20029;-59
2023/07/10 10:18:34;;;;;;;4.50;0.90;;;25.70;99.90;;;;;;5053160;28;20021;-60
2023/07/10 10:21:01;;;;;;;3.60;0.95;;;26.10;99.90;;;;;;5055116;28;20021;-59
2023/07/10 10:23:38;;;;;;;2.83;0.90;;;26.90;99.90;;;;;;5054578;28;20382;-62
2023/07/10 10:26:14;;;;;;;3.65;0.90;;;27.50;99.90;;;;;;5054251;28;20107;-61
2023/07/10 10:29:21;;;;;;;5.22;0.90;;;28.00;99.30;;;;;;5053321;28;20024;-62
2023/07/10 10:32:03;;;;;;;4.97;1.10;;;27.90;99.80;;;;;;5053752;28;20049;-62
2023/07/10 10:34:41;;;;;;;4.35;1.00;;;28.40;99.00;;;;;;5052742;28;20108;-60
2023/07/10 10:37:13;;;;;;;4.43;1.38;;;28.70;98.60;;;;;;5054047;28;20017;-62
2023/07/10 10:39:45;;;;;;;3.67;1.13;;;28.90;98.00;;;;;;5053104;28;20067;-60
2023/07/10 10:42:26;;;;;;;1.17;0.77;;;28.90;97.40;;;;;;5053395;28;20060;-59
2023/07/10 10:45:03;;;;;;;2.97;0.75;;;28.70;98.00;;;;;;5054532;28;20060;-61
2023/07/10 10:47:55;;;;;;;7.80;1.23;;;28.60;98.10;;;;;;5054444;28;20079;-62
2023/07/10 10:50:35;;;;;;;3.80;1.08;;;28.40;98.40;;;;;;5051093;28;20041;-60
2023/07/10 10:53:36;;;;;;;3.60;0.90;;;27.60;98.70;;;;;;5054250;28;20033;-61
2023/07/10 10:56:19;;;;;;;6.68;0.82;;;26.90;99.40;;;;;;5052860;28;20481;-60
2023/07/10 10:58:55;;;;;;;2.95;1.23;;;27.00;99.80;;;;;;5053111;28;20541;-62
2023/07/10 11:01:32;;;;;;;8.85;0.95;;;26.80;99.60;;;;;;5054155;28;20158;-61
2023/07/10 11:04:09;;;;;;;9.52;1.00;;;26.10;99.80;;;;;;5051682;28;20450;-59
2023/07/10 11:07:02;;;;;;;5.00;1.35;;;25.50;99.90;;;;;;5054247;28;20032;-63
2023/07/10 11:09:53;;;;;;;4.20;1.45;;;25.20;99.90;;;;;;5053991;28;20477;-62
2023/07/10 11:12:22;;;;;;;6.10;1.35;;;25.20;99.90;;;;;;5051886;28;20041;-61
2023/07/10 11:14:55;;;;;;;5.15;1.95;;;25.40;99.90;;;;;;5053803;28;20056;-58
2023/07/10 11:17:22;;;;;;;3.65;1.63;;;25.60;99.90;;;;;;5053805;28;20056;-62
2023/07/10 11:19:49;;;;;;;2.35;0.88;;;25.80;99.90;;;;;;5050626;28;20112;-61
2023/07/10 11:22:31;;;;;;;3.40;1.20;;;25.90;99.90;;;;;;5054016;28;20029;-61
2023/07/10 11:25:02;;;;;;;5.78;1.10;;;26.00;99.90;;;;;;5053725;28;20337;-60
2023/07/10 11:27:32;;;;;;;5.53;1.27;;;26.10;99.90;;;;;;5053701;28;20025;-60
2023/07/10 11:30:06;;;;;;;3.53;1.20;;;26.00;99.90;;;;;;5053308;28;20371;-60
2023/07/10 11:32:35;;;;;;;3.17;0.90;;;26.20;99.90;;;;;;5053378;28;20032;-60
2023/07/10 11:35:18;;;;;;;4.07;1.50;;;26.30;99.90;;;;;;5051065;28;20029;-62
2023/07/10 11:37:47;;;;;;;7.80;1.40;;;26.30;99.90;;;;;;5053416;28;20021;-59
2023/07/10 11:40:43;;;;;;;6.03;1.50;;;25.90;99.90;;;;;;5053328;28;20029;-62
2023/07/10 11:43:27;;;;;;;8.67;1.53;;;25.80;99.90;;;;;;5051660;28;20063;-62
2023/07/10 11:46:02;;;;;;;5.75;1.00;;;25.40;99.90;;;;;;5053232;28;20027;-61
2023/07/10 11:48:39;;;;;;;4.47;1.40;;;25.10;99.90;;;;;;5049838;28;20063;-62
2023/07/10 11:51:27;;;;;;;4.30;2.17;;;25.50;99.90;;;;;;5053143;28;20108;-62
2023/07/10 11:54:05;;;;;;;4.47;1.15;;;25.80;99.90;;;;;;5051105;28;20162;-61
2023/07/10 11:56:32;;;;;;;2.50;0.90;;;26.10;99.90;;;;;;5051758;28;20060;-59
2023/07/10 11:58:59;;;;;;;3.83;1.55;;;26.20;99.90;;;;;;5053070;28;20021;-65
2023/07/10 12:01:26;;;;;;;0.80;0.70;;;26.20;99.90;;;;;;5052968;28;20032;-59
2023/07/10 12:03:54;;;;;;;4.07;1.02;;;26.30;99.90;;;;;;5050805;28;20025;-61
2023/07/10 12:06:23;;;;;;;5.32;1.23;;;26.30;99.90;;;;;;5052904;28;20021;-62
2023/07/10 12:08:51;;;;;;;2.33;1.27;;;26.20;99.90;;;;;;5052676;28;20440;-62
2023/07/10 12:11:47;;;;;;;5.63;0.75;;;26.40;99.90;;;;;;5051341;28;20501;-63
2023/07/10 12:14:17;;;;;;;4.25;1.02;;;26.60;99.90;;;;;;5051404;28;20064;-61
2023/07/10 12:16:56;;;;;;;4.63;1.55;;;27.00;99.90;;;;;;5052802;28;20032;-63
2023/07/10 12:19:31;;;;;;;5.72;1.33;;;26.80;99.40;;;;;;5049412;28;20025;-60
2023/07/10 12:22:02;;;;;;;7.15;1.20;;;26.80;99.90;;;;;;5052728;28;20381;-63
2023/07/10 12:24:29;;;;;;;3.50;1.27;;;27.00;99.80;;;;;;5052591;28;20158;-64
2023/07/10 12:26:56;;;;;;;4.05;1.02;;;26.70;99.40;;;;;;5052483;28;20029;-61
2023/07/10 12:29:22;;;;;;;2.67;1.25;;;26.30;99.40;;;;;;5052595;28;20393;-62
2023/07/10 12:31:48;;;;;;;3.30;1.27;;;26.10;99.50;;;;;;5051078;28;20029;-61
2023/07/10 12:34:23;;;;;;;5.95;0.95;;;25.70;99.80;;;;;;5050666;28;20111;-59
2023/07/10 12:36:51;;;;;;;5.60;1.77;;;25.70;99.90;;;;;;5052516;28;20051;-64
2023/07/10 12:39:17;;;;;;;3.03;1.23;;;25.70;99.90;;;;;;5052507;28;20029;-61
2023/07/10 12:41:47;;;;;;;2.55;0.82;;;25.80;99.90;;;;;;5051187;28;20385;-63
2023/07/10 12:44:22;;;;;;;8.63;1.70;;;26.10;99.90;;;;;;5050772;28;20029;-63
2023/07/10 12:46:55;;;;;;;2.47;1.10;;;26.20;99.90;;;;;;5052464;28;20044;-65
2023/07/10 12:49:27;;;;;;;10.43;1.17;;;26.20;99.90;;;;;;5050671;28;20131;-60
2023/07/10 12:51:53;;;;;;;4.72;1.50;;;26.20;99.90;;;;;;5052377;28;20035;-63
2023/07/10 12:54:25;;;;;;;3.28;0.90;;;26.10;99.90;;;;;;5052382;28;20028;-60
2023/07/10 12:56:55;;;;;;;5.13;1.15;;;26.10;99.90;;;;;;5051093;28;20389;-62
2023/07/10 12:59:31;;;;;;;2.67;0.90;;;26.40;99.40;;;;;;5051004;28;20370;-62
2023/07/10 13:02:04;;;;;;;1.90;1.20;;;26.60;99.80;;;;;;5053966;28;20068;-64